Terminal Aerodrome Forecast
Issued by NWS

Home | Current Version | Previous Version | Graphics & Text | Print | Product List | Glossary On
Versions: 1 2 3 4 5 6 7 8 9 10 11 12 13 14 15 16 17 18
558
FTUS43 KMPX 270520
TAFAXN
TAF
KAXN 270520Z 2706/2806 VRB04KT P6SM VCSH SCT120 OVC180
     FM270800 VRB03KT 6SM -TSRA BR OVC070CB
     FM271200 04007KT P6SM VCSH BKN018
     FM271600 02008KT P6SM BKN025
     FM271900 02008KT P6SM BKN040=

USA.gov is the U.S. government's official web portal to all federal, state and local government web resources and services.